sensor_id;sensor_type;location;lat;lon;timestamp;temperature;humidity
43987;DHT22;29650;47.378;8.300;2022-09-20T00:01:17;10.40;99.40
43987;DHT22;29650;47.378;8.300;2022-09-20T00:03:47;10.40;98.90
43987;DHT22;29650;47.378;8.300;2022-09-20T00:06:17;10.60;98.40
43987;DHT22;29650;47.378;8.300;2022-09-20T00:08:44;10.40;98.30
43987;DHT22;29650;47.378;8.300;2022-09-20T00:11:14;10.40;97.90
43987;DHT22;29650;47.378;8.300;2022-09-20T00:13:45;10.00;97.70
43987;DHT22;29650;47.378;8.300;2022-09-20T00:16:14;10.00;99.50
43987;DHT22;29650;47.378;8.300;2022-09-20T00:18:41;10.20;98.90
43987;DHT22;29650;47.378;8.300;2022-09-20T00:21:14;9.90;98.60
43987;DHT22;29650;47.378;8.300;2022-09-20T00:23:41;10.10;99.90
43987;DHT22;29650;47.378;8.300;2022-09-20T00:26:08;10.50;98.70
43987;DHT22;29650;47.378;8.300;2022-09-20T00:28:35;10.10;98.00
43987;DHT22;29650;47.378;8.300;2022-09-20T00:31:02;10.20;99.10
43987;DHT22;29650;47.378;8.300;2022-09-20T00:33:31;10.30;98.80
43987;DHT22;29650;47.378;8.300;2022-09-20T00:36:12;10.10;99.50
43987;DHT22;29650;47.378;8.300;2022-09-20T00:38:38;10.00;99.90
43987;DHT22;29650;47.378;8.300;2022-09-20T00:41:05;9.90;99.90
43987;DHT22;29650;47.378;8.300;2022-09-20T00:43:36;10.00;99.90
43987;DHT22;29650;47.378;8.300;2022-09-20T00:46:05;10.00;99.90
43987;DHT22;29650;47.378;8.300;2022-09-20T00:48:36;10.00;99.90
43987;DHT22;29650;47.378;8.300;2022-09-20T00:51:07;10.20;99.90
43987;DHT22;29650;47.378;8.300;2022-09-20T00:53:39;9.90;99.90
43987;DHT22;29650;47.378;8.300;2022-09-20T00:56:09;9.80;99.90
43987;DHT22;29650;47.378;8.300;2022-09-20T00:58:40;9.80;99.90
43987;DHT22;29650;47.378;8.300;2022-09-20T01:01:09;9.80;99.90
43987;DHT22;29650;47.378;8.300;2022-09-20T01:03:38;9.70;99.90
43987;DHT22;29650;47.378;8.300;2022-09-20T01:06:10;9.70;99.90
43987;DHT22;29650;47.378;8.300;2022-09-20T01:08:38;9.60;99.90
43987;DHT22;29650;47.378;8.300;2022-09-20T01:11:06;9.60;99.90
43987;DHT22;29650;47.378;8.300;2022-09-20T01:13:33;9.50;99.90
43987;DHT22;29650;47.378;8.300;2022-09-20T01:16:01;9.50;99.90
43987;DHT22;29650;47.378;8.300;2022-09-20T01:18:31;9.50;99.90
43987;DHT22;29650;47.378;8.300;2022-09-20T01:21:00;9.40;99.90
43987;DHT22;29650;47.378;8.300;2022-09-20T01:23:34;9.40;99.90
43987;DHT22;29650;47.378;8.300;2022-09-20T01:26:41;9.30;99.90
43987;DHT22;29650;47.378;8.300;2022-09-20T01:29:23;9.30;99.90
43987;DHT22;29650;47.378;8.300;2022-09-20T01:31:53;9.30;99.90
43987;DHT22;29650;47.378;8.300;2022-09-20T01:34:25;9.30;99.90
43987;DHT22;29650;47.378;8.300;2022-09-20T01:36:56;9.30;99.90
43987;DHT22;29650;47.378;8.300;2022-09-20T01:39:35;9.40;99.90
43987;DHT22;29650;47.378;8.300;2022-09-20T01:42:07;9.30;99.90
43987;DHT22;29650;47.378;8.300;2022-09-20T01:44:39;9.20;99.90
43987;DHT22;29650;47.378;8.300;2022-09-20T01:47:14;9.10;99.90
43987;DHT22;29650;47.378;8.300;2022-09-20T01:49:49;9.10;99.90
43987;DHT22;29650;47.378;8.300;2022-09-20T01:58:46;9.10;99.90
43987;DHT22;29650;47.378;8.300;2022-09-20T02:08:13;9.20;99.90
43987;DHT22;29650;47.378;8.300;2022-09-20T02:11:08;9.00;99.90
43987;DHT22;29650;47.378;8.300;2022-09-20T02:13:54;9.00;99.90
43987;DHT22;29650;47.378;8.300;2022-09-20T02:16:39;9.00;99.90
43987;DHT22;29650;47.378;8.300;2022-09-20T02:19:27;9.00;99.90
43987;DHT22;29650;47.378;8.300;2022-09-20T02:22:08;9.00;99.90
43987;DHT22;29650;47.378;8.300;2022-09-20T02:24:44;9.00;99.90
43987;DHT22;29650;47.378;8.300;2022-09-20T02:27:22;9.00;99.90
43987;DHT22;29650;47.378;8.300;2022-09-20T02:29:59;9.00;99.90
43987;DHT22;29650;47.378;8.300;2022-09-20T02:35:32;9.00;99.90
43987;DHT22;29650;47.378;8.300;2022-09-20T02:38:10;9.00;99.90
43987;DHT22;29650;47.378;8.300;2022-09-20T02:41:01;8.90;99.90
43987;DHT22;29650;47.378;8.300;2022-09-20T02:43:34;8.90;99.90
43987;DHT22;29650;47.378;8.300;2022-09-20T02:46:09;9.00;99.90
43987;DHT22;29650;47.378;8.300;2022-09-20T02:48:46;9.00;99.90
43987;DHT22;29650;47.378;8.300;2022-09-20T02:51:20;8.80;99.90
43987;DHT22;29650;47.378;8.300;2022-09-20T02:54:00;8.80;99.90
43987;DHT22;29650;47.378;8.300;2022-09-20T02:56:36;8.80;99.90
43987;DHT22;29650;47.378;8.300;2022-09-20T02:59:08;8.80;99.90
43987;DHT22;29650;47.378;8.300;2022-09-20T03:01:43;8.80;99.90
43987;DHT22;29650;47.378;8.300;2022-09-20T03:04:23;8.60;99.90
43987;DHT22;29650;47.378;8.300;2022-09-20T03:06:58;8.60;99.90
43987;DHT22;29650;47.378;8.300;2022-09-20T03:09:32;8.60;99.90
43987;DHT22;29650;47.378;8.300;2022-09-20T03:12:12;8.50;99.90
43987;DHT22;29650;47.378;8.300;2022-09-20T03:14:44;8.50;99.90
43987;DHT22;29650;47.378;8.300;2022-09-20T03:17:18;8.60;99.90
43987;DHT22;29650;47.378;8.300;2022-09-20T03:19:58;8.70;99.90
43987;DHT22;29650;47.378;8.300;2022-09-20T03:22:37;8.60;99.90
43987;DHT22;29650;47.378;8.300;2022-09-20T03:25:32;8.40;99.90
43987;DHT22;29650;47.378;8.300;2022-09-20T03:28:10;8.40;99.90
43987;DHT22;29650;47.378;8.300;2022-09-20T03:30:50;8.30;99.90
43987;DHT22;29650;47.378;8.300;2022-09-20T03:33:28;8.30;99.90
43987;DHT22;29650;47.378;8.300;2022-09-20T03:36:06;8.30;99.90
43987;DHT22;29650;47.378;8.300;2022-09-20T03:38:54;8.30;99.90
43987;DHT22;29650;47.378;8.300;2022-09-20T03:44:48;8.30;99.90
43987;DHT22;29650;47.378;8.300;2022-09-20T03:47:29;8.50;99.90
43987;DHT22;29650;47.378;8.300;2022-09-20T03:50:22;8.40;99.90
43987;DHT22;29650;47.378;8.300;2022-09-20T03:53:04;8.30;99.90
43987;DHT22;29650;47.378;8.300;2022-09-20T03:55:58;8.20;99.90
43987;DHT22;29650;47.378;8.300;2022-09-20T03:58:40;8.10;99.90
43987;DHT22;29650;47.378;8.300;2022-09-20T04:01:32;8.20;99.90
43987;DHT22;29650;47.378;8.300;2022-09-20T04:04:06;8.20;99.90
43987;DHT22;29650;47.378;8.300;2022-09-20T04:06:52;8.20;99.90
43987;DHT22;29650;47.378;8.300;2022-09-20T04:12:29;8.00;99.90
43987;DHT22;29650;47.378;8.300;2022-09-20T04:15:07;8.10;99.90
43987;DHT22;29650;47.378;8.300;2022-09-20T04:17:48;8.10;99.90
43987;DHT22;29650;47.378;8.300;2022-09-20T04:20:21;8.00;99.90
43987;DHT22;29650;47.378;8.300;2022-09-20T04:22:51;7.90;99.90
43987;DHT22;29650;47.378;8.300;2022-09-20T04:25:25;7.90;99.90
43987;DHT22;29650;47.378;8.300;2022-09-20T04:27:57;7.70;99.90
43987;DHT22;29650;47.378;8.300;2022-09-20T04:30:26;7.70;99.90
43987;DHT22;29650;47.378;8.300;2022-09-20T04:33:00;7.70;99.90
43987;DHT22;29650;47.378;8.300;2022-09-20T04:35:39;7.70;99.90
43987;DHT22;29650;47.378;8.300;2022-09-20T04:38:26;7.70;99.90
43987;DHT22;29650;47.378;8.300;2022-09-20T04:41:20;7.70;99.90
43987;DHT22;29650;47.378;8.300;2022-09-20T04:44:19;7.70;99.90
43987;DHT22;29650;47.378;8.300;2022-09-20T04:47:11;7.70;99.90
43987;DHT22;29650;47.378;8.300;2022-09-20T04:55:54;7.70;99.90
43987;DHT22;29650;47.378;8.300;2022-09-20T04:58:48;7.70;99.90
43987;DHT22;29650;47.378;8.300;2022-09-20T05:13:52;7.80;99.90
43987;DHT22;29650;47.378;8.300;2022-09-20T05:16:27;7.80;99.90
43987;DHT22;29650;47.378;8.300;2022-09-20T05:19:12;7.80;99.90
43987;DHT22;29650;47.378;8.300;2022-09-20T05:21:51;7.70;99.90
43987;DHT22;29650;47.378;8.300;2022-09-20T05:24:54;7.50;99.90
43987;DHT22;29650;47.378;8.300;2022-09-20T05:27:35;7.70;99.90
43987;DHT22;29650;47.378;8.300;2022-09-20T05:30:21;7.70;99.90
43987;DHT22;29650;47.378;8.300;2022-09-20T05:32:56;7.70;99.90
43987;DHT22;29650;47.378;8.300;2022-09-20T05:35:35;7.70;99.90
43987;DHT22;29650;47.378;8.300;2022-09-20T05:38:12;7.80;99.90
43987;DHT22;29650;47.378;8.300;2022-09-20T05:40:59;7.80;99.90
43987;DHT22;29650;47.378;8.300;2022-09-20T05:43:31;7.80;99.90
43987;DHT22;29650;47.378;8.300;2022-09-20T05:46:13;7.80;99.90
43987;DHT22;29650;47.378;8.300;2022-09-20T05:48:52;7.90;99.90
43987;DHT22;29650;47.378;8.300;2022-09-20T05:51:30;8.00;99.90
43987;DHT22;29650;47.378;8.300;2022-09-20T05:54:04;8.00;99.90
43987;DHT22;29650;47.378;8.300;2022-09-20T05:56:40;8.00;99.90
43987;DHT22;29650;47.378;8.300;2022-09-20T05:59:21;8.10;99.90
43987;DHT22;29650;47.378;8.300;2022-09-20T06:02:08;8.10;99.90
43987;DHT22;29650;47.378;8.300;2022-09-20T06:04:41;8.10;99.90
43987;DHT22;29650;47.378;8.300;2022-09-20T06:07:19;8.10;99.90
43987;DHT22;29650;47.378;8.300;2022-09-20T06:10:11;8.20;99.90
43987;DHT22;29650;47.378;8.300;2022-09-20T06:12:50;8.20;99.90
43987;DHT22;29650;47.378;8.300;2022-09-20T06:15:24;8.30;99.90
43987;DHT22;29650;47.378;8.300;2022-09-20T06:17:58;8.60;99.90
43987;DHT22;29650;47.378;8.300;2022-09-20T06:20:33;8.60;99.90
43987;DHT22;29650;47.378;8.300;2022-09-20T06:23:04;8.70;99.90
43987;DHT22;29650;47.378;8.300;2022-09-20T06:25:36;8.90;99.90
43987;DHT22;29650;47.378;8.300;2022-09-20T06:28:13;8.90;99.90
43987;DHT22;29650;47.378;8.300;2022-09-20T06:30:43;8.90;99.90
43987;DHT22;29650;47.378;8.300;2022-09-20T06:33:15;8.90;99.90
43987;DHT22;29650;47.378;8.300;2022-09-20T06:35:45;8.90;99.90
43987;DHT22;29650;47.378;8.300;2022-09-20T06:38:38;9.00;99.90
43987;DHT22;29650;47.378;8.300;2022-09-20T06:41:27;9.10;99.90
43987;DHT22;29650;47.378;8.300;2022-09-20T06:43:58;9.40;99.90
43987;DHT22;29650;47.378;8.300;2022-09-20T06:46:26;9.50;99.90
43987;DHT22;29650;47.378;8.300;2022-09-20T06:48:55;9.50;99.90
43987;DHT22;29650;47.378;8.300;2022-09-20T06:51:23;9.60;99.90
43987;DHT22;29650;47.378;8.300;2022-09-20T06:53:51;9.70;99.90
43987;DHT22;29650;47.378;8.300;2022-09-20T06:56:21;9.90;99.90
43987;DHT22;29650;47.378;8.300;2022-09-20T06:58:49;9.70;99.90
43987;DHT22;29650;47.378;8.300;2022-09-20T07:01:17;9.90;99.90
43987;DHT22;29650;47.378;8.300;2022-09-20T07:03:44;9.90;99.90
43987;DHT22;29650;47.378;8.300;2022-09-20T07:06:13;10.00;99.90
43987;DHT22;29650;47.378;8.300;2022-09-20T07:08:43;9.90;99.90
43987;DHT22;29650;47.378;8.300;2022-09-20T07:11:12;10.10;99.90
43987;DHT22;29650;47.378;8.300;2022-09-20T07:13:40;10.00;99.90
43987;DHT22;29650;47.378;8.300;2022-09-20T07:16:09;10.10;99.90
43987;DHT22;29650;47.378;8.300;2022-09-20T07:18:37;10.10;99.90
43987;DHT22;29650;47.378;8.300;2022-09-20T07:21:06;10.40;99.90
43987;DHT22;29650;47.378;8.300;2022-09-20T07:23:34;10.40;99.90
43987;DHT22;29650;47.378;8.300;2022-09-20T07:26:01;10.40;99.90
43987;DHT22;29650;47.378;8.300;2022-09-20T07:28:29;10.30;99.90
43987;DHT22;29650;47.378;8.300;2022-09-20T07:30:56;10.50;99.90
43987;DHT22;29650;47.378;8.300;2022-09-20T07:33:23;10.30;99.90
43987;DHT22;29650;47.378;8.300;2022-09-20T07:35:51;10.50;99.90
43987;DHT22;29650;47.378;8.300;2022-09-20T07:38:20;10.80;99.90
43987;DHT22;29650;47.378;8.300;2022-09-20T07:40:55;10.80;99.90
43987;DHT22;29650;47.378;8.300;2022-09-20T07:43:22;10.90;99.90
43987;DHT22;29650;47.378;8.300;2022-09-20T07:45:49;10.70;99.90
43987;DHT22;29650;47.378;8.300;2022-09-20T07:48:19;10.70;99.90
43987;DHT22;29650;47.378;8.300;2022-09-20T07:50:50;10.80;99.90
43987;DHT22;29650;47.378;8.300;2022-09-20T07:53:17;10.90;99.90
43987;DHT22;29650;47.378;8.300;2022-09-20T07:55:57;10.90;99.90
43987;DHT22;29650;47.378;8.300;2022-09-20T07:58:24;11.00;99.90
43987;DHT22;29650;47.378;8.300;2022-09-20T08:00:52;11.00;99.90
43987;DHT22;29650;47.378;8.300;2022-09-20T08:03:19;11.10;99.90
43987;DHT22;29650;47.378;8.300;2022-09-20T08:05:47;11.00;99.90
43987;DHT22;29650;47.378;8.300;2022-09-20T08:08:14;11.00;99.90
43987;DHT22;29650;47.378;8.300;2022-09-20T08:10:42;11.20;99.90
43987;DHT22;29650;47.378;8.300;2022-09-20T08:13:12;11.30;99.90
43987;DHT22;29650;47.378;8.300;2022-09-20T08:15:40;11.40;99.90
43987;DHT22;29650;47.378;8.300;2022-09-20T08:18:07;11.50;99.90
43987;DHT22;29650;47.378;8.300;2022-09-20T08:20:36;11.70;99.90
43987;DHT22;29650;47.378;8.300;2022-09-20T08:23:04;11.80;99.90
43987;DHT22;29650;47.378;8.300;2022-09-20T08:25:31;11.90;99.90
43987;DHT22;29650;47.378;8.300;2022-09-20T08:27:58;12.10;99.90
43987;DHT22;29650;47.378;8.300;2022-09-20T08:30:26;12.10;99.90
43987;DHT22;29650;47.378;8.300;2022-09-20T08:32:53;12.10;99.90
43987;DHT22;29650;47.378;8.300;2022-09-20T08:35:21;12.10;99.90
43987;DHT22;29650;47.378;8.300;2022-09-20T08:37:50;12.10;99.90
43987;DHT22;29650;47.378;8.300;2022-09-20T08:40:19;12.20;99.50
43987;DHT22;29650;47.378;8.300;2022-09-20T08:42:48;12.40;99.80
43987;DHT22;29650;47.378;8.300;2022-09-20T08:45:18;12.50;99.30
43987;DHT22;29650;47.378;8.300;2022-09-20T08:47:49;12.50;99.90
43987;DHT22;29650;47.378;8.300;2022-09-20T08:50:18;12.70;99.50
43987;DHT22;29650;47.378;8.300;2022-09-20T08:52:47;12.60;97.50
43987;DHT22;29650;47.378;8.300;2022-09-20T08:55:16;12.70;97.60
43987;DHT22;29650;47.378;8.300;2022-09-20T08:57:47;12.80;96.70
43987;DHT22;29650;47.378;8.300;2022-09-20T09:00:16;12.90;94.90
43987;DHT22;29650;47.378;8.300;2022-09-20T09:02:44;13.10;96.20
43987;DHT22;29650;47.378;8.300;2022-09-20T09:05:29;13.70;93.60
43987;DHT22;29650;47.378;8.300;2022-09-20T09:08:04;13.20;93.50
43987;DHT22;29650;47.378;8.300;2022-09-20T09:10:34;13.10;92.90
43987;DHT22;29650;47.378;8.300;2022-09-20T09:13:03;13.30;93.00
43987;DHT22;29650;47.378;8.300;2022-09-20T09:15:33;13.40;93.30
43987;DHT22;29650;47.378;8.300;2022-09-20T09:18:01;13.50;94.00
43987;DHT22;29650;47.378;8.300;2022-09-20T09:20:39;13.50;93.10
43987;DHT22;29650;47.378;8.300;2022-09-20T09:23:10;13.60;93.30
43987;DHT22;29650;47.378;8.300;2022-09-20T09:25:46;13.60;91.10
43987;DHT22;29650;47.378;8.300;2022-09-20T09:28:14;13.90;90.40
43987;DHT22;29650;47.378;8.300;2022-09-20T09:30:42;14.00;91.40
43987;DHT22;29650;47.378;8.300;2022-09-20T09:33:23;13.90;92.00
43987;DHT22;29650;47.378;8.300;2022-09-20T09:35:57;13.90;93.00
43987;DHT22;29650;47.378;8.300;2022-09-20T09:38:27;14.00;89.50
43987;DHT22;29650;47.378;8.300;2022-09-20T09:40:55;14.00;89.80
43987;DHT22;29650;47.378;8.300;2022-09-20T09:43:27;13.90;89.10
43987;DHT22;29650;47.378;8.300;2022-09-20T09:45:58;14.00;91.20
43987;DHT22;29650;47.378;8.300;2022-09-20T09:48:42;14.00;90.50
43987;DHT22;29650;47.378;8.300;2022-09-20T09:51:17;14.30;84.70
43987;DHT22;29650;47.378;8.300;2022-09-20T09:53:46;15.00;91.30
43987;DHT22;29650;47.378;8.300;2022-09-20T09:56:31;14.80;88.70
43987;DHT22;29650;47.378;8.300;2022-09-20T10:02:00;14.70;86.80
43987;DHT22;29650;47.378;8.300;2022-09-20T10:04:34;14.60;85.40
43987;DHT22;29650;47.378;8.300;2022-09-20T10:07:08;14.50;82.90
43987;DHT22;29650;47.378;8.300;2022-09-20T10:09:53;14.70;83.10
43987;DHT22;29650;47.378;8.300;2022-09-20T10:12:37;14.30;82.70
43987;DHT22;29650;47.378;8.300;2022-09-20T10:15:26;14.10;81.90
43987;DHT22;29650;47.378;8.300;2022-09-20T10:18:15;14.20;80.50
43987;DHT22;29650;47.378;8.300;2022-09-20T10:20:52;14.20;80.30
43987;DHT22;29650;47.378;8.300;2022-09-20T10:23:39;14.80;79.30
43987;DHT22;29650;47.378;8.300;2022-09-20T10:26:19;15.20;75.10
43987;DHT22;29650;47.378;8.300;2022-09-20T10:28:54;15.50;76.20
43987;DHT22;29650;47.378;8.300;2022-09-20T10:31:34;16.00;75.50
43987;DHT22;29650;47.378;8.300;2022-09-20T10:34:33;16.10;73.20
43987;DHT22;29650;47.378;8.300;2022-09-20T10:37:10;15.60;75.00
43987;DHT22;29650;47.378;8.300;2022-09-20T10:39:41;15.20;76.20
43987;DHT22;29650;47.378;8.300;2022-09-20T10:42:19;15.10;76.80
43987;DHT22;29650;47.378;8.300;2022-09-20T10:45:12;15.30;79.60
43987;DHT22;29650;47.378;8.300;2022-09-20T10:47:51;15.20;75.80
43987;DHT22;29650;47.378;8.300;2022-09-20T10:50:29;15.30;78.30
43987;DHT22;29650;47.378;8.300;2022-09-20T10:53:14;15.30;77.50
43987;DHT22;29650;47.378;8.300;2022-09-20T10:55:48;15.40;77.20
43987;DHT22;29650;47.378;8.300;2022-09-20T10:58:41;15.10;73.70
43987;DHT22;29650;47.378;8.300;2022-09-20T11:01:14;15.10;73.50
43987;DHT22;29650;47.378;8.300;2022-09-20T11:03:55;15.10;75.70
43987;DHT22;29650;47.378;8.300;2022-09-20T11:06:31;14.80;74.90
43987;DHT22;29650;47.378;8.300;2022-09-20T11:09:06;14.60;76.20
43987;DHT22;29650;47.378;8.300;2022-09-20T11:11:40;15.00;71.90
43987;DHT22;29650;47.378;8.300;2022-09-20T11:14:12;15.40;72.10
43987;DHT22;29650;47.378;8.300;2022-09-20T11:16:44;15.70;72.10
43987;DHT22;29650;47.378;8.300;2022-09-20T11:19:19;15.80;71.90
43987;DHT22;29650;47.378;8.300;2022-09-20T11:21:54;15.80;74.50
43987;DHT22;29650;47.378;8.300;2022-09-20T11:24:29;15.80;72.50
43987;DHT22;29650;47.378;8.300;2022-09-20T11:27:01;16.00;71.10
43987;DHT22;29650;47.378;8.300;2022-09-20T11:29:33;16.00;68.40
43987;DHT22;29650;47.378;8.300;2022-09-20T11:32:07;15.90;69.90
43987;DHT22;29650;47.378;8.300;2022-09-20T11:34:42;15.80;68.30
43987;DHT22;29650;47.378;8.300;2022-09-20T11:37:12;15.90;65.30
43987;DHT22;29650;47.378;8.300;2022-09-20T11:39:43;16.10;64.80
43987;DHT22;29650;47.378;8.300;2022-09-20T11:42:15;16.30;66.20
43987;DHT22;29650;47.378;8.300;2022-09-20T11:44:43;16.50;64.60
43987;DHT22;29650;47.378;8.300;2022-09-20T11:47:16;17.10;66.60
43987;DHT22;29650;47.378;8.300;2022-09-20T11:49:54;17.20;64.10
43987;DHT22;29650;47.378;8.300;2022-09-20T11:52:38;17.20;64.30
43987;DHT22;29650;47.378;8.300;2022-09-20T11:55:33;16.80;62.50
43987;DHT22;29650;47.378;8.300;2022-09-20T11:58:05;16.90;63.30
43987;DHT22;29650;47.378;8.300;2022-09-20T12:00:35;17.00;62.40
43987;DHT22;29650;47.378;8.300;2022-09-20T12:03:04;17.20;62.70
43987;DHT22;29650;47.378;8.300;2022-09-20T12:05:33;16.80;60.90
43987;DHT22;29650;47.378;8.300;2022-09-20T12:08:04;17.50;62.30
43987;DHT22;29650;47.378;8.300;2022-09-20T12:10:33;17.60;61.60
43987;DHT22;29650;47.378;8.300;2022-09-20T12:13:04;17.30;63.30
43987;DHT22;29650;47.378;8.300;2022-09-20T12:15:34;17.10;64.10
43987;DHT22;29650;47.378;8.300;2022-09-20T12:20:56;17.50;61.20
43987;DHT22;29650;47.378;8.300;2022-09-20T12:26:47;17.00;62.90
43987;DHT22;29650;47.378;8.300;2022-09-20T12:38:38;15.70;65.90
43987;DHT22;29650;47.378;8.300;2022-09-20T12:41:08;15.60;66.70
43987;DHT22;29650;47.378;8.300;2022-09-20T12:43:46;15.60;68.60
43987;DHT22;29650;47.378;8.300;2022-09-20T12:46:20;15.70;68.80
43987;DHT22;29650;47.378;8.300;2022-09-20T12:48:49;16.10;66.30
43987;DHT22;29650;47.378;8.300;2022-09-20T12:51:20;16.40;67.40
43987;DHT22;29650;47.378;8.300;2022-09-20T12:54:10;16.90;65.70
43987;DHT22;29650;47.378;8.300;2022-09-20T12:56:39;17.20;62.90
43987;DHT22;29650;47.378;8.300;2022-09-20T12:59:20;17.40;61.90
43987;DHT22;29650;47.378;8.300;2022-09-20T13:01:47;17.60;60.80
43987;DHT22;29650;47.378;8.300;2022-09-20T13:07:46;17.90;60.70
43987;DHT22;29650;47.378;8.300;2022-09-20T13:10:24;18.10;61.00
43987;DHT22;29650;47.378;8.300;2022-09-20T13:12:56;17.90;59.00
43987;DHT22;29650;47.378;8.300;2022-09-20T13:15:25;17.80;60.80
43987;DHT22;29650;47.378;8.300;2022-09-20T13:17:54;17.20;60.60
43987;DHT22;29650;47.378;8.300;2022-09-20T13:20:24;17.00;61.30
43987;DHT22;29650;47.378;8.300;2022-09-20T13:22:54;16.80;62.50
43987;DHT22;29650;47.378;8.300;2022-09-20T13:25:21;16.40;63.60
43987;DHT22;29650;47.378;8.300;2022-09-20T13:27:53;16.10;64.70
43987;DHT22;29650;47.378;8.300;2022-09-20T13:30:24;16.20;65.10
43987;DHT22;29650;47.378;8.300;2022-09-20T13:32:53;16.30;66.80
43987;DHT22;29650;47.378;8.300;2022-09-20T13:35:21;16.30;64.80
43987;DHT22;29650;47.378;8.300;2022-09-20T13:37:54;16.40;63.90
43987;DHT22;29650;47.378;8.300;2022-09-20T13:40:24;16.40;65.10
43987;DHT22;29650;47.378;8.300;2022-09-20T13:42:59;16.20;64.80
43987;DHT22;29650;47.378;8.300;2022-09-20T13:45:27;16.20;65.80
43987;DHT22;29650;47.378;8.300;2022-09-20T13:47:58;16.30;64.20
43987;DHT22;29650;47.378;8.300;2022-09-20T13:50:28;16.50;65.50
43987;DHT22;29650;47.378;8.300;2022-09-20T13:52:58;16.30;66.30
43987;DHT22;29650;47.378;8.300;2022-09-20T13:55:28;16.30;67.10
43987;DHT22;29650;47.378;8.300;2022-09-20T13:57:58;16.00;68.10
43987;DHT22;29650;47.378;8.300;2022-09-20T14:00:26;15.80;68.00
43987;DHT22;29650;47.378;8.300;2022-09-20T14:02:54;15.80;69.90
43987;DHT22;29650;47.378;8.300;2022-09-20T14:05:23;15.70;70.80
43987;DHT22;29650;47.378;8.300;2022-09-20T14:07:51;15.90;69.60
43987;DHT22;29650;47.378;8.300;2022-09-20T14:10:31;15.90;69.20
43987;DHT22;29650;47.378;8.300;2022-09-20T14:13:00;15.90;69.70
43987;DHT22;29650;47.378;8.300;2022-09-20T14:15:31;16.30;70.50
43987;DHT22;29650;47.378;8.300;2022-09-20T14:18:00;16.80;66.80
43987;DHT22;29650;47.378;8.300;2022-09-20T14:20:29;17.10;65.90
43987;DHT22;29650;47.378;8.300;2022-09-20T14:22:56;17.20;64.20
43987;DHT22;29650;47.378;8.300;2022-09-20T14:25:24;17.40;63.20
43987;DHT22;29650;47.378;8.300;2022-09-20T14:28:16;17.40;62.90
43987;DHT22;29650;47.378;8.300;2022-09-20T14:30:45;17.10;64.40
43987;DHT22;29650;47.378;8.300;2022-09-20T14:33:15;16.50;63.40
43987;DHT22;29650;47.378;8.300;2022-09-20T14:35:48;16.30;65.10
43987;DHT22;29650;47.378;8.300;2022-09-20T14:38:17;16.30;65.50
43987;DHT22;29650;47.378;8.300;2022-09-20T14:40:47;16.30;67.00
43987;DHT22;29650;47.378;8.300;2022-09-20T14:43:25;16.20;67.00
43987;DHT22;29650;47.378;8.300;2022-09-20T14:45:56;16.50;66.10
43987;DHT22;29650;47.378;8.300;2022-09-20T14:48:34;16.90;66.50
43987;DHT22;29650;47.378;8.300;2022-09-20T14:51:10;16.70;64.60
43987;DHT22;29650;47.378;8.300;2022-09-20T14:53:38;16.90;63.50
43987;DHT22;29650;47.378;8.300;2022-09-20T14:56:10;16.70;64.70
43987;DHT22;29650;47.378;8.300;2022-09-20T14:59:01;16.70;65.60
43987;DHT22;29650;47.378;8.300;2022-09-20T15:01:29;16.50;64.90
43987;DHT22;29650;47.378;8.300;2022-09-20T15:03:56;16.50;65.70
43987;DHT22;29650;47.378;8.300;2022-09-20T15:06:24;16.60;66.60
43987;DHT22;29650;47.378;8.300;2022-09-20T15:08:51;17.00;66.60
43987;DHT22;29650;47.378;8.300;2022-09-20T15:11:18;17.40;67.60
43987;DHT22;29650;47.378;8.300;2022-09-20T15:13:46;17.50;65.50
43987;DHT22;29650;47.378;8.300;2022-09-20T15:16:16;17.80;63.70
43987;DHT22;29650;47.378;8.300;2022-09-20T15:18:44;18.10;63.30
43987;DHT22;29650;47.378;8.300;2022-09-20T15:21:11;17.40;61.00
43987;DHT22;29650;47.378;8.300;2022-09-20T15:23:39;17.00;61.70
43987;DHT22;29650;47.378;8.300;2022-09-20T15:26:06;17.10;65.00
43987;DHT22;29650;47.378;8.300;2022-09-20T15:28:35;17.00;66.70
43987;DHT22;29650;47.378;8.300;2022-09-20T15:31:02;16.70;66.70
43987;DHT22;29650;47.378;8.300;2022-09-20T15:33:31;16.70;67.30
43987;DHT22;29650;47.378;8.300;2022-09-20T15:35:59;16.50;67.50
43987;DHT22;29650;47.378;8.300;2022-09-20T15:38:26;16.40;68.60
43987;DHT22;29650;47.378;8.300;2022-09-20T15:40:53;16.30;69.70
43987;DHT22;29650;47.378;8.300;2022-09-20T15:43:22;16.40;70.00
43987;DHT22;29650;47.378;8.300;2022-09-20T15:45:53;16.30;70.50
43987;DHT22;29650;47.378;8.300;2022-09-20T15:48:22;16.20;70.90
43987;DHT22;29650;47.378;8.300;2022-09-20T15:51:01;16.10;70.80
43987;DHT22;29650;47.378;8.300;2022-09-20T15:53:30;16.60;69.80
43987;DHT22;29650;47.378;8.300;2022-09-20T15:55:59;16.70;68.60
43987;DHT22;29650;47.378;8.300;2022-09-20T15:58:27;16.50;68.50
43987;DHT22;29650;47.378;8.300;2022-09-20T16:01:01;16.60;69.50
43987;DHT22;29650;47.378;8.300;2022-09-20T16:03:29;16.60;69.60
43987;DHT22;29650;47.378;8.300;2022-09-20T16:05:58;16.40;69.90
43987;DHT22;29650;47.378;8.300;2022-09-20T16:08:30;16.30;68.80
43987;DHT22;29650;47.378;8.300;2022-09-20T16:10:57;16.30;70.00
43987;DHT22;29650;47.378;8.300;2022-09-20T16:13:25;16.20;70.00
43987;DHT22;29650;47.378;8.300;2022-09-20T16:15:55;16.00;69.60
43987;DHT22;29650;47.378;8.300;2022-09-20T16:18:22;15.90;69.90
43987;DHT22;29650;47.378;8.300;2022-09-20T16:21:07;15.90;69.10
43987;DHT22;29650;47.378;8.300;2022-09-20T16:23:38;15.90;69.70
43987;DHT22;29650;47.378;8.300;2022-09-20T16:26:06;15.90;69.80
43987;DHT22;29650;47.378;8.300;2022-09-20T16:28:34;15.70;70.20
43987;DHT22;29650;47.378;8.300;2022-09-20T16:31:01;15.70;70.30
43987;DHT22;29650;47.378;8.300;2022-09-20T16:33:28;15.70;69.40
43987;DHT22;29650;47.378;8.300;2022-09-20T16:35:57;15.60;71.00
43987;DHT22;29650;47.378;8.300;2022-09-20T16:38:25;15.60;71.30
43987;DHT22;29650;47.378;8.300;2022-09-20T16:40:53;15.60;71.00
43987;DHT22;29650;47.378;8.300;2022-09-20T16:43:20;15.40;71.80
43987;DHT22;29650;47.378;8.300;2022-09-20T16:45:57;15.40;71.50
43987;DHT22;29650;47.378;8.300;2022-09-20T16:48:25;15.40;70.70
43987;DHT22;29650;47.378;8.300;2022-09-20T16:50:54;15.40;71.20
43987;DHT22;29650;47.378;8.300;2022-09-20T16:53:21;15.20;71.30
43987;DHT22;29650;47.378;8.300;2022-09-20T16:55:48;15.10;71.90
43987;DHT22;29650;47.378;8.300;2022-09-20T16:58:17;15.20;72.10
43987;DHT22;29650;47.378;8.300;2022-09-20T17:00:44;15.10;71.90
43987;DHT22;29650;47.378;8.300;2022-09-20T17:03:11;15.00;71.70
43987;DHT22;29650;47.378;8.300;2022-09-20T17:05:38;15.00;71.40
43987;DHT22;29650;47.378;8.300;2022-09-20T17:08:06;15.10;71.20
43987;DHT22;29650;47.378;8.300;2022-09-20T17:10:34;14.90;71.20
43987;DHT22;29650;47.378;8.300;2022-09-20T17:13:01;14.80;71.80
43987;DHT22;29650;47.378;8.300;2022-09-20T17:15:33;14.70;73.20
43987;DHT22;29650;47.378;8.300;2022-09-20T17:18:02;14.70;73.10